Time;durP1;ratioP1;P1;durP2;ratioP2;P2;SDS_P1;SDS_P2;PMS_P1;PMS_P2;Temp;Humidity;BMP_temperature;BMP_pressure;BME280_temperature;BME280_humidity;BME280_pressure;Samples;Min_cycle;Max_cycle;Signal;HPM_P1;HPM_P2
2020/12/23 00:02:09;;;;;;;15.60;8.78;;;;;;;-0.85;75.52;101343.38;1730974;82;21223;-72
2020/12/23 00:04:36;;;;;;;16.45;8.15;;;;;;;-0.89;75.28;101346.78;1734871;81;21963;-72
2020/12/23 00:07:07;;;;;;;13.85;8.18;;;;;;;-0.92;75.16;101344.97;1745178;82;21221;-71
2020/12/23 00:09:34;;;;;;;16.45;9.00;;;;;;;-0.94;75.07;101353.02;1728732;81;21233;-74
2020/12/23 00:12:03;;;;;;;16.52;9.25;;;;;;;-0.96;75.02;101347.10;1762196;80;21202;-73
2020/12/23 00:14:32;;;;;;;13.65;7.90;;;;;;;-0.93;74.98;101345.97;1778931;80;21198;-74
2020/12/23 00:16:59;;;;;;;15.83;8.20;;;;;;;-0.91;74.95;101347.45;1779204;80;21175;-73
2020/12/23 00:19:27;;;;;;;14.23;7.40;;;;;;;-0.91;74.89;101345.33;1768819;79;21175;-73
2020/12/23 00:21:55;;;;;;;13.25;7.80;;;;;;;-0.94;74.75;101338.59;1774508;79;21805;-74
2020/12/23 00:24:22;;;;;;;13.13;7.22;;;;;;;-0.97;74.65;101338.42;1778350;80;21208;-74
2020/12/23 00:26:50;;;;;;;13.43;6.85;;;;;;;-0.99;74.54;101336.94;1773916;79;21179;-73
2020/12/23 00:29:17;;;;;;;12.98;7.20;;;;;;;-1.03;74.51;101328.58;1776956;80;21673;-74
2020/12/23 00:31:45;;;;;;;12.75;7.58;;;;;;;-1.03;74.56;101338.25;1778697;80;21135;-74
2020/12/23 00:34:12;;;;;;;15.43;8.15;;;;;;;-1.04;74.59;101334.00;1780062;80;21437;-74
2020/12/23 00:36:40;;;;;;;13.70;7.50;;;;;;;-1.05;74.67;101332.36;1778423;80;21183;-72
2020/12/23 00:39:07;;;;;;;13.68;7.37;;;;;;;-1.04;74.70;101332.69;1780236;80;21140;-74
2020/12/23 00:41:35;;;;;;;13.68;7.67;;;;;;;-1.03;74.76;101322.02;1781095;80;21622;-73
2020/12/23 00:44:02;;;;;;;13.88;7.37;;;;;;;-1.01;74.77;101324.50;1775672;79;21211;-74
2020/12/23 00:46:31;;;;;;;14.80;8.33;;;;;;;-1.01;74.80;101314.83;1771287;80;21421;-75
2020/12/23 00:48:58;;;;;;;13.93;8.38;;;;;;;-1.01;74.78;101312.70;1773491;80;21496;-74
2020/12/23 00:51:26;;;;;;;14.78;8.70;;;;;;;-1.01;74.84;101316.62;1776745;80;21518;-75
2020/12/23 00:53:54;;;;;;;14.10;8.40;;;;;;;-0.99;74.88;101311.56;1753249;80;21222;-75
2020/12/23 00:56:22;;;;;;;13.35;7.35;;;;;;;-0.96;74.92;101303.84;1771157;80;21178;-73
2020/12/23 00:58:49;;;;;;;15.95;9.38;;;;;;;-0.94;74.86;101301.88;1770134;80;21825;-74
2020/12/23 01:01:17;;;;;;;12.33;7.05;;;;;;;-0.95;74.88;101300.25;1754085;80;21166;-75
2020/12/23 01:03:46;;;;;;;15.08;8.68;;;;;;;-0.95;74.84;101296.31;1778576;80;21194;-75
2020/12/23 01:06:14;;;;;;;14.03;8.00;;;;;;;-0.95;74.78;101286.64;1778288;80;21778;-74
2020/12/23 01:08:43;;;;;;;14.03;8.18;;;;;;;-0.96;74.75;101282.86;1768283;79;21190;-75
2020/12/23 01:11:11;;;;;;;14.33;8.25;;;;;;;-0.98;74.74;101276.98;1774823;80;21430;-74
2020/12/23 01:13:39;;;;;;;14.45;8.50;;;;;;;-0.98;74.68;101279.11;1779626;80;21582;-74
2020/12/23 01:16:07;;;;;;;13.88;8.30;;;;;;;-0.99;74.59;101270.08;1778067;80;21547;-75
2020/12/23 01:18:35;;;;;;;15.78;8.33;;;;;;;-1.00;74.58;101265.82;1770490;80;21166;-73
2020/12/23 01:21:03;;;;;;;13.95;8.15;;;;;;;-1.00;74.56;101262.70;1781447;80;21127;-75
2020/12/23 01:26:13;;;;;;;16.70;8.73;;;;;;;-0.91;74.54;101239.94;1816169;79;23568;-74
2020/12/23 01:28:43;;;;;;;13.38;7.85;;;;;;;-0.97;74.50;101243.20;1783333;80;21584;-75
2020/12/23 01:31:10;;;;;;;17.05;9.08;;;;;;;-0.96;74.47;101246.96;1772260;80;21654;-75
2020/12/23 01:33:39;;;;;;;13.43;8.13;;;;;;;-0.95;74.48;101242.56;1821500;78;21561;-75
2020/12/23 01:36:07;;;;;;;14.43;8.35;;;;;;;-0.94;74.47;101237.64;1806916;78;21559;-74
2020/12/23 01:38:36;;;;;;;14.30;8.08;;;;;;;-0.92;74.49;101230.91;1788669;79;21216;-75
2020/12/23 01:41:05;;;;;;;16.62;9.03;;;;;;;-0.91;74.50;101232.06;1792389;80;21105;-74
2020/12/23 01:43:33;;;;;;;16.05;8.95;;;;;;;-0.89;74.54;101228.77;1794470;79;21372;-75
2020/12/23 01:46:01;;;;;;;17.48;9.38;;;;;;;-0.88;74.53;101230.42;1776753;80;21163;-74
2020/12/23 01:48:32;;;;;;;17.02;9.95;;;;;;;-0.88;74.54;101226.49;1807818;77;21203;-74
2020/12/23 01:51:03;;;;;;;18.62;10.72;;;;;;;-0.87;74.57;101218.94;1795867;77;21173;-75
2020/12/23 01:53:30;;;;;;;16.32;8.85;;;;;;;-0.85;74.58;101221.42;1805867;78;21147;-75
2020/12/23 01:56:00;;;;;;;14.60;8.18;;;;;;;-0.84;74.57;101209.43;1810676;77;21204;-75
2020/12/23 01:58:27;;;;;;;16.60;9.40;;;;;;;-0.86;74.59;101210.58;1786059;79;21097;-75
2020/12/23 02:00:56;;;;;;;16.48;9.33;;;;;;;-0.84;74.59;101202.87;1800819;78;21611;-73
2020/12/23 02:03:24;;;;;;;16.97;9.33;;;;;;;-0.83;74.55;101197.95;1769974;79;21195;-74
2020/12/23 02:05:52;;;;;;;17.40;9.43;;;;;;;-0.82;74.52;101207.48;1751682;78;21630;-74
2020/12/23 02:08:19;;;;;;;16.52;9.75;;;;;;;-0.81;74.45;101198.61;1813611;78;22046;-74
2020/12/23 02:10:49;;;;;;;19.32;9.85;;;;;;;-0.82;74.46;101194.36;1804708;78;21171;-75
2020/12/23 02:13:39;;;;;;;20.00;9.90;;;;;;;-0.82;74.48;101185.18;1800760;79;21207;-75
2020/12/23 02:16:08;;;;;;;21.55;10.85;;;;;;;-0.78;74.52;101183.04;1797855;78;21522;-74
2020/12/23 02:18:36;;;;;;;23.20;11.75;;;;;;;-0.76;74.47;101183.20;1812151;78;21092;-73
2020/12/23 02:21:06;;;;;;;22.13;11.33;;;;;;;-0.72;74.52;101179.75;1796251;78;22354;-76
2020/12/23 02:23:33;;;;;;;24.52;12.15;;;;;;;-0.71;74.54;101173.52;1786152;79;21099;-74
2020/12/23 02:26:01;;;;;;;25.70;13.90;;;;;;;-0.74;74.55;101172.03;1735777;80;21480;-75
2020/12/23 02:28:29;;;;;;;27.15;12.47;;;;;;;-0.74;74.59;101168.60;1808129;78;21116;-75
2020/12/23 02:31:03;;;;;;;21.42;12.00;;;;;;;-0.73;74.59;101171.04;1779200;79;21187;-75
2020/12/23 02:33:30;;;;;;;20.50;11.63;;;;;;;-0.73;74.56;101167.61;1797012;78;21426;-75
2020/12/23 02:35:58;;;;;;;23.95;12.53;;;;;;;-0.72;74.57;101167.45;1801898;78;21147;-75
2020/12/23 02:38:26;;;;;;;27.75;12.65;;;;;;;-0.72;74.61;101158.27;1801363;79;21144;-75
2020/12/23 02:40:53;;;;;;;21.48;11.68;;;;;;;-0.68;74.61;101160.56;1799736;78;21124;-75
2020/12/23 02:43:21;;;;;;;21.50;10.90;;;;;;;-0.67;74.57;101149.07;1799246;78;21080;-75
2020/12/23 02:45:49;;;;;;;21.37;11.63;;;;;;;-0.67;74.48;101149.07;1800998;79;22149;-74
2020/12/23 02:48:16;;;;;;;16.73;9.88;;;;;;;-0.67;74.44;101141.20;1799519;79;21168;-73
2020/12/23 02:50:44;;;;;;;27.05;13.00;;;;;;;-0.69;74.36;101142.70;1801119;78;21175;-75
2020/12/23 02:53:11;;;;;;;23.77;11.97;;;;;;;-0.73;74.31;101143.50;1795047;79;21064;-75
2020/12/23 02:55:40;;;;;;;25.37;11.93;;;;;;;-0.75;74.30;101136.31;1797330;79;21575;-75
2020/12/23 02:58:07;;;;;;;24.10;12.23;;;;;;;-0.74;74.26;101134.00;1798655;78;21813;-74
2020/12/23 03:00:37;;;;;;;21.77;12.80;;;;;;;-0.74;74.23;101123.51;1800332;79;21187;-75
2020/12/23 03:03:04;;;;;;;24.07;11.55;;;;;;;-0.72;74.17;101135.16;1797463;78;21155;-75
2020/12/23 03:05:32;;;;;;;27.65;14.07;;;;;;;-0.73;74.13;101130.38;1808526;78;21073;-75
2020/12/23 03:07:59;;;;;;;22.20;11.70;;;;;;;-0.74;74.15;101130.06;1799111;78;21072;-75
2020/12/23 03:10:27;;;;;;;21.30;10.90;;;;;;;-0.71;74.22;101123.67;1804018;79;21378;-75
2020/12/23 03:12:55;;;;;;;21.65;11.35;;;;;;;-0.73;74.24;101118.58;1805582;78;21783;-75
2020/12/23 03:15:22;;;;;;;21.00;11.00;;;;;;;-0.75;74.32;101110.08;1802633;79;21072;-74
2020/12/23 03:17:50;;;;;;;21.65;11.35;;;;;;;-0.75;74.42;101119.26;1790923;79;21175;-74
2020/12/23 03:20:19;;;;;;;20.75;10.93;;;;;;;-0.73;74.45;101113.83;1800126;79;21568;-74
2020/12/23 03:22:46;;;;;;;19.57;10.88;;;;;;;-0.72;74.50;101109.74;1799790;78;21135;-75
2020/12/23 03:25:14;;;;;;;22.55;12.43;;;;;;;-0.74;74.56;101101.22;1796934;78;21125;-74
2020/12/23 03:27:41;;;;;;;22.50;12.10;;;;;;;-0.74;74.61;101099.91;1794998;79;21092;-75
2020/12/23 03:30:09;;;;;;;20.60;11.35;;;;;;;-0.73;74.70;101103.34;1799694;79;21124;-75
2020/12/23 03:32:37;;;;;;;21.73;12.55;;;;;;;-0.74;74.75;101110.39;1798436;78;21125;-74
2020/12/23 03:35:06;;;;;;;19.95;11.40;;;;;;;-0.76;74.84;101109.77;1801046;78;21555;-75
2020/12/23 03:37:35;;;;;;;20.77;11.53;;;;;;;-0.74;74.94;101105.64;1800566;79;21088;-74
2020/12/23 03:40:03;;;;;;;20.48;11.95;;;;;;;-0.73;75.01;101105.46;1814443;77;21128;-75
2020/12/23 03:42:33;;;;;;;20.23;11.48;;;;;;;-0.71;75.02;101098.25;1817364;78;21026;-75
2020/12/23 03:45:00;;;;;;;19.82;11.88;;;;;;;-0.71;75.01;101104.00;1822594;78;21045;-75
2020/12/23 03:47:28;;;;;;;22.00;11.75;;;;;;;-0.74;75.01;101103.02;1799209;78;21318;-74
2020/12/23 03:49:56;;;;;;;21.30;11.48;;;;;;;-0.78;75.04;101102.55;1795816;78;21188;-75
2020/12/23 03:52:25;;;;;;;19.92;12.00;;;;;;;-0.77;75.11;101100.23;1800023;79;21145;-75
2020/12/23 03:54:54;;;;;;;21.35;11.08;;;;;;;-0.79;75.14;101096.14;1805744;79;21183;-75
2020/12/23 03:57:21;;;;;;;19.98;11.68;;;;;;;-0.80;75.20;101095.33;1796562;78;21560;-74
2020/12/23 03:59:49;;;;;;;20.30;11.20;;;;;;;-0.80;75.26;101097.95;1796855;78;22254;-74
2020/12/23 04:02:17;;;;;;;19.57;11.48;;;;;;;-0.79;75.27;101092.20;1802835;78;21195;-75
2020/12/23 04:04:44;;;;;;;20.40;11.48;;;;;;;-0.80;75.24;101086.15;1799004;79;21175;-74
2020/12/23 04:07:12;;;;;;;20.85;11.65;;;;;;;-0.80;75.30;101083.52;1796486;79;21681;-75
2020/12/23 04:09:41;;;;;;;19.30;10.93;;;;;;;-0.81;75.34;101077.97;1800928;78;21512;-75
2020/12/23 04:12:08;;;;;;;19.02;11.60;;;;;;;-0.81;75.33;101075.84;1805278;79;21874;-75
2020/12/23 04:14:36;;;;;;;20.43;12.25;;;;;;;-0.83;75.36;101076.49;1821622;78;21124;-75
2020/12/23 04:17:03;;;;;;;22.02;12.45;;;;;;;-0.86;75.42;101078.95;1789353;80;21173;-76
2020/12/23 04:19:31;;;;;;;23.90;13.68;;;;;;;-0.86;75.46;101073.70;1787433;80;21100;-74
2020/12/23 04:21:59;;;;;;;19.37;11.38;;;;;;;-0.88;75.47;101075.70;1790711;79;21628;-74
2020/12/23 04:24:26;;;;;;;22.37;12.63;;;;;;;-0.87;75.52;101072.58;1765790;79;21197;-74
2020/12/23 04:26:54;;;;;;;24.77;13.75;;;;;;;-0.88;75.56;101071.77;1767769;79;21595;-75
2020/12/23 04:29:22;;;;;;;23.20;12.58;;;;;;;-0.88;75.63;101076.20;1788883;78;21048;-76
2020/12/23 04:31:49;;;;;;;21.80;12.18;;;;;;;-0.87;75.64;101074.70;1780917;78;21120;-75
2020/12/23 04:34:18;;;;;;;22.25;13.18;;;;;;;-0.86;75.67;101075.02;1781923;80;21129;-75
2020/12/23 04:36:47;;;;;;;22.27;12.58;;;;;;;-0.85;75.72;101069.30;1792323;79;21928;-75
2020/12/23 04:39:17;;;;;;;23.83;13.68;;;;;;;-0.84;75.76;101060.44;1792925;80;21140;-74
2020/12/23 04:41:44;;;;;;;24.85;14.47;;;;;;;-0.85;75.79;101065.38;1780914;79;21168;-75
2020/12/23 04:44:12;;;;;;;24.50;14.18;;;;;;;-0.86;75.90;101067.16;1792012;80;21173;-74
2020/12/23 04:46:40;;;;;;;23.70;13.53;;;;;;;-0.86;75.98;101063.72;1820889;77;21484;-75
2020/12/23 04:49:08;;;;;;;24.60;14.20;;;;;;;-0.84;76.05;101061.75;1794888;78;21490;-75
2020/12/23 04:51:39;;;;;;;29.98;15.90;;;;;;;-0.83;76.06;101065.50;1817583;78;21101;-75
2020/12/23 04:54:07;;;;;;;25.00;14.45;;;;;;;-0.82;76.11;101065.84;1822986;77;21100;-75
2020/12/23 04:56:36;;;;;;;26.75;14.63;;;;;;;-0.82;76.14;101071.09;1823024;77;21160;-75
2020/12/23 04:59:03;;;;;;;24.20;14.43;;;;;;;-0.80;76.10;101066.97;1821192;77;21076;-75
2020/12/23 05:01:31;;;;;;;27.07;14.10;;;;;;;-0.83;76.10;101068.13;1815397;77;21813;-75
2020/12/23 05:03:59;;;;;;;25.80;14.65;;;;;;;-0.84;76.09;101079.61;1791326;80;21135;-74
2020/12/23 05:06:26;;;;;;;25.25;15.08;;;;;;;-0.86;76.13;101071.58;1797643;79;21541;-75
2020/12/23 05:08:54;;;;;;;28.20;14.75;;;;;;;-0.87;76.17;101071.27;1789171;79;21076;-75
2020/12/23 05:11:21;;;;;;;23.62;13.78;;;;;;;-0.86;76.22;101076.83;1778788;80;21065;-75
2020/12/23 05:13:49;;;;;;;31.00;15.85;;;;;;;-0.88;76.29;101074.39;1798771;78;21223;-75
2020/12/23 05:16:30;;;;;;;33.60;17.32;;;;;;;-0.88;76.31;101070.45;1801196;79;21145;-76
2020/12/23 05:18:59;;;;;;;30.40;15.43;;;;;;;-0.87;76.32;101072.58;1814042;79;21113;-75
2020/12/23 05:21:27;;;;;;;28.80;15.60;;;;;;;-0.87;76.38;101076.02;1804830;78;21136;-76
2020/12/23 05:23:56;;;;;;;29.32;15.72;;;;;;;-0.85;76.38;101070.12;1783138;80;21320;-75
2020/12/23 05:26:25;;;;;;;28.95;16.15;;;;;;;-0.82;76.41;101077.65;1819660;78;21363;-76
2020/12/23 05:28:53;;;;;;;31.85;17.12;;;;;;;-0.82;76.42;101081.58;1801840;79;21112;-75
2020/12/23 05:31:21;;;;;;;28.60;15.53;;;;;;;-0.79;76.50;101075.16;1804038;79;21195;-75
2020/12/23 05:33:50;;;;;;;32.30;17.48;;;;;;;-0.78;76.52;101064.52;1812012;78;21120;-76
2020/12/23 05:36:19;;;;;;;32.42;15.55;;;;;;;-0.78;76.48;101061.89;1817221;77;21493;-75
2020/12/23 05:38:47;;;;;;;32.00;15.63;;;;;;;-0.80;76.49;101055.98;1803137;79;21742;-75
2020/12/23 05:41:15;;;;;;;35.48;17.75;;;;;;;-0.81;76.42;101060.92;1782431;79;21167;-75
2020/12/23 05:43:44;;;;;;;32.88;17.85;;;;;;;-0.83;76.39;101056.82;1788262;79;21049;-74
2020/12/23 05:46:12;;;;;;;35.80;18.45;;;;;;;-0.83;76.44;101059.44;1802201;78;21131;-75
2020/12/23 05:48:41;;;;;;;33.85;17.25;;;;;;;-0.82;76.44;101060.60;1801208;79;21151;-74
2020/12/23 05:51:09;;;;;;;33.83;17.82;;;;;;;-0.80;76.42;101054.67;1783033;79;21484;-75
2020/12/23 05:53:39;;;;;;;26.65;15.05;;;;;;;-0.78;76.44;101044.84;1798059;79;21167;-75
2020/12/23 05:56:08;;;;;;;31.93;17.95;;;;;;;-0.76;76.37;101056.46;1797964;78;21603;-74
2020/12/23 05:58:38;;;;;;;34.65;17.98;;;;;;;-0.78;76.34;101046.66;1777483;79;21686;-74
2020/12/23 06:01:08;;;;;;;30.15;17.00;;;;;;;-0.78;76.33;101057.14;1796185;79;21200;-75
2020/12/23 06:03:55;;;;;;;30.37;15.60;;;;;;;-0.78;76.32;101043.53;1821376;77;21368;-75
2020/12/23 06:06:30;;;;;;;30.15;15.83;;;;;;;-0.81;76.27;101033.37;1778124;79;21080;-75
2020/12/23 06:09:01;;;;;;;29.12;16.25;;;;;;;-0.84;76.29;101033.72;1799173;79;21551;-75
2020/12/23 06:11:37;;;;;;;32.48;17.27;;;;;;;-0.83;76.33;101048.45;1797848;79;21132;-74
2020/12/23 06:14:18;;;;;;;30.35;16.73;;;;;;;-0.84;76.36;101045.52;1797504;78;21166;-74
2020/12/23 06:16:50;;;;;;;30.08;16.17;;;;;;;-0.82;76.37;101035.69;1808341;78;21238;-75
2020/12/23 06:19:24;;;;;;;33.05;16.85;;;;;;;-0.79;76.36;101041.06;1799334;79;21148;-75
2020/12/23 06:21:54;;;;;;;29.25;15.83;;;;;;;-0.79;76.30;101041.91;1795072;79;21179;-75
2020/12/23 06:24:22;;;;;;;29.85;15.60;;;;;;;-0.80;76.24;101033.69;1797241;78;21065;-75
2020/12/23 06:26:56;;;;;;;27.20;14.80;;;;;;;-0.82;76.27;101022.58;1814214;77;21596;-74
2020/12/23 06:29:28;;;;;;;29.45;15.30;;;;;;;-0.82;76.25;101016.02;1795421;79;21478;-74
2020/12/23 06:32:00;;;;;;;32.13;17.10;;;;;;;-0.84;76.23;101032.91;1781456;78;21176;-76
2020/12/23 06:34:38;;;;;;;27.85;14.90;;;;;;;-0.85;76.29;101033.41;1801192;79;21120;-73
2020/12/23 06:37:17;;;;;;;29.10;15.48;;;;;;;-0.87;76.27;101034.05;1794424;78;21128;-74
2020/12/23 06:39:45;;;;;;;25.65;13.68;;;;;;;-0.86;76.31;101028.31;1794558;78;21152;-74
2020/12/23 06:42:19;;;;;;;30.27;15.35;;;;;;;-0.86;76.31;101019.95;1787273;78;21220;-75
2020/12/23 06:44:53;;;;;;;27.20;14.55;;;;;;;-0.87;76.35;101022.25;1821334;78;21208;-75
2020/12/23 06:47:23;;;;;;;28.62;14.38;;;;;;;-0.86;76.41;101022.56;1812450;77;21140;-76
2020/12/23 06:50:04;;;;;;;27.13;15.23;;;;;;;-0.84;76.43;101017.98;1822238;78;21046;-76
2020/12/23 06:52:33;;;;;;;27.40;14.53;;;;;;;-0.84;76.47;101010.61;1788302;78;21120;-75
2020/12/23 06:55:06;;;;;;;27.82;15.88;;;;;;;-0.82;76.49;101008.65;1786737;78;21374;-75
2020/12/23 06:57:44;;;;;;;28.25;14.20;;;;;;;-0.80;76.50;101000.91;1791342;78;21169;-74
2020/12/23 07:00:14;;;;;;;31.12;15.15;;;;;;;-0.76;76.47;100995.66;1786102;78;21562;-74
2020/12/23 07:02:45;;;;;;;28.55;14.83;;;;;;;-0.76;76.46;100989.58;1818477;78;21592;-75
2020/12/23 07:05:22;;;;;;;28.62;15.38;;;;;;;-0.76;76.47;100983.86;1811976;77;21100;-75
2020/12/23 07:07:56;;;;;;;30.52;16.37;;;;;;;-0.76;76.46;100989.11;1802544;77;22129;-75
2020/12/23 07:10:30;;;;;;;31.50;14.78;;;;;;;-0.73;76.48;100998.41;1785178;78;21185;-74
2020/12/23 07:13:01;;;;;;;28.23;14.65;;;;;;;-0.68;76.46;100993.48;1778769;80;21128;-73
2020/12/23 07:15:36;;;;;;;25.17;12.75;;;;;;;-0.67;76.36;100996.42;1787438;78;21636;-75
2020/12/23 07:18:14;;;;;;;27.70;15.48;;;;;;;-0.65;76.25;100987.08;1782981;79;21640;-74
2020/12/23 07:20:47;;;;;;;29.32;14.70;;;;;;;-0.64;76.24;101003.95;1788558;78;21520;-75
2020/12/23 07:23:18;;;;;;;31.93;15.53;;;;;;;-0.62;76.21;100997.23;1792313;78;21144;-74
2020/12/23 07:25:55;;;;;;;29.52;15.25;;;;;;;-0.59;76.16;100999.02;1796998;78;21143;-71
2020/12/23 07:28:37;;;;;;;24.40;12.35;;;;;;;-0.54;76.09;101003.73;1797161;78;21270;-73
2020/12/23 07:31:05;;;;;;;25.65;13.08;;;;;;;-0.50;76.02;101005.02;1809620;77;21148;-72
2020/12/23 07:33:34;;;;;;;24.82;12.70;;;;;;;-0.48;75.94;101003.86;1784876;79;21360;-73
2020/12/23 07:36:02;;;;;;;26.40;14.60;;;;;;;-0.48;75.80;101009.11;1782772;79;21212;-72
2020/12/23 07:38:34;;;;;;;24.87;14.93;;;;;;;-0.49;75.71;101017.97;1770565;78;21121;-73
2020/12/23 07:41:01;;;;;;;28.42;14.15;;;;;;;-0.46;75.74;101022.06;1803152;79;21183;-72
2020/12/23 07:43:29;;;;;;;24.12;13.18;;;;;;;-0.41;75.69;100997.42;1790682;79;21152;-73
2020/12/23 07:45:56;;;;;;;24.82;13.20;;;;;;;-0.38;75.57;101004.95;1785367;79;21520;-73
2020/12/23 07:48:29;;;;;;;25.50;13.18;;;;;;;-0.33;75.50;101006.56;1799788;78;21163;-73
2020/12/23 07:50:57;;;;;;;27.35;13.80;;;;;;;-0.30;75.41;100998.81;1798041;78;21149;-72
2020/12/23 07:53:27;;;;;;;22.25;12.53;;;;;;;-0.26;75.35;100979.94;1796232;79;21273;-73
2020/12/23 07:56:02;;;;;;;22.52;12.70;;;;;;;-0.22;75.25;100981.71;1797955;78;21171;-73
2020/12/23 07:58:30;;;;;;;24.63;12.98;;;;;;;-0.18;75.12;100981.67;1794025;78;21372;-71
2020/12/23 08:00:58;;;;;;;22.07;12.68;;;;;;;-0.14;75.05;100982.13;1795377;79;21199;-73
2020/12/23 08:03:27;;;;;;;24.75;12.63;;;;;;;-0.11;74.95;100973.91;1819007;78;21575;-72
2020/12/23 08:06:11;;;;;;;25.30;13.03;;;;;;;-0.10;74.78;100983.41;1787433;78;21183;-72
2020/12/23 08:08:40;;;;;;;25.10;12.85;;;;;;;-0.10;74.70;100981.63;1797288;78;21488;-73
2020/12/23 08:11:13;;;;;;;23.55;12.82;;;;;;;-0.11;74.62;100976.03;1783185;79;21325;-72
2020/12/23 08:13:41;;;;;;;21.05;11.75;;;;;;;-0.10;74.56;100970.28;1807609;78;21164;-72
2020/12/23 08:16:11;;;;;;;23.55;13.53;;;;;;;-0.13;74.45;100973.26;1796183;78;21116;-73
2020/12/23 08:18:41;;;;;;;21.85;12.23;;;;;;;-0.14;74.41;100977.70;1789823;78;21490;-72
2020/12/23 08:21:17;;;;;;;20.20;11.43;;;;;;;-0.13;74.44;100969.31;1781749;80;21576;-73
2020/12/23 08:23:47;;;;;;;24.75;11.95;;;;;;;-0.14;74.41;100963.25;1783170;79;21433;-73
2020/12/23 08:26:14;;;;;;;23.70;12.45;;;;;;;-0.12;74.45;100964.41;1801888;79;21177;-72
2020/12/23 08:28:44;;;;;;;23.95;13.03;;;;;;;-0.09;74.46;100961.43;1788817;79;21593;-74
2020/12/23 08:31:23;;;;;;;22.73;12.40;;;;;;;-0.08;74.43;100959.11;1787476;79;21575;-74
2020/12/23 08:33:51;;;;;;;21.05;12.35;;;;;;;-0.07;74.49;100952.36;1819528;78;21842;-73
2020/12/23 08:36:20;;;;;;;22.22;12.18;;;;;;;-0.06;74.58;100950.58;1770373;79;21359;-74
2020/12/23 08:38:49;;;;;;;23.92;13.08;;;;;;;-0.06;74.65;100948.77;1782659;80;21218;-73
2020/12/23 08:41:21;;;;;;;20.68;11.40;;;;;;;-0.05;74.77;100953.02;1815135;77;21181;-73
2020/12/23 08:43:50;;;;;;;23.40;13.75;;;;;;;-0.04;74.81;100951.20;1780589;79;21176;-74
2020/12/23 08:46:25;;;;;;;20.43;11.80;;;;;;;-0.07;74.94;100943.17;1795198;79;21187;-74
2020/12/23 08:48:54;;;;;;;21.75;11.97;;;;;;;-0.06;75.01;100933.51;1797579;79;21544;-73
2020/12/23 08:51:25;;;;;;;20.62;11.12;;;;;;;-0.06;75.01;100940.08;1798297;78;21235;-72
2020/12/23 08:53:54;;;;;;;21.35;11.73;;;;;;;-0.06;75.08;100938.76;1798727;79;21179;-73
2020/12/23 08:56:33;;;;;;;19.70;11.10;;;;;;;-0.06;75.06;100938.76;1803380;79;21160;-75
2020/12/23 08:59:06;;;;;;;25.25;13.40;;;;;;;-0.05;75.13;100946.95;1797129;79;21164;-73
2020/12/23 09:01:35;;;;;;;22.37;11.95;;;;;;;-0.06;75.20;100947.95;1799574;78;21391;-73
2020/12/23 09:06:45;;;;;;;23.03;12.80;;;;;;;0.05;75.33;100933.06;1794901;79;23184;-73
2020/12/23 09:09:18;;;;;;;21.42;12.70;;;;;;;0.03;75.34;100937.67;1752243;80;21174;-73
2020/12/23 09:11:52;;;;;;;23.07;12.65;;;;;;;0.06;75.43;100919.44;1749848;81;21351;-74
2020/12/23 09:14:39;;;;;;;21.48;12.73;;;;;;;0.05;75.42;100925.19;1770574;80;21179;-73
2020/12/23 09:17:21;;;;;;;22.60;12.63;;;;;;;0.03;75.48;100926.35;1770920;80;21128;-73
2020/12/23 09:19:55;;;;;;;24.43;12.73;;;;;;;0.01;75.64;100925.23;1778938;79;21184;-73
2020/12/23 09:22:37;;;;;;;23.38;12.43;;;;;;;0.01;75.82;100921.30;1763545;80;21144;-73
2020/12/23 09:25:26;;;;;;;23.20;12.98;;;;;;;0.02;76.06;100917.66;1753995;80;22295;-73
2020/12/23 09:27:55;;;;;;;23.42;13.38;;;;;;;0.02;76.35;100918.98;1755441;80;21166;-72
2020/12/23 09:30:36;;;;;;;22.87;13.03;;;;;;;0.01;76.61;100911.29;1751165;81;21140;-73
2020/12/23 09:33:13;;;;;;;20.35;11.35;;;;;;;0.02;76.81;100912.41;1724136;83;21699;-73
2020/12/23 09:35:44;;;;;;;23.05;12.30;;;;;;;0.03;77.02;100898.78;1751434;80;21152;-73
2020/12/23 09:38:30;;;;;;;20.25;11.85;;;;;;;0.03;77.27;100896.15;1779136;80;21369;-72
2020/12/23 09:40:59;;;;;;;21.75;11.70;;;;;;;0.00;77.49;100890.78;1781303;80;21215;-73
2020/12/23 09:43:28;;;;;;;22.55;12.70;;;;;;;-0.01;77.74;100883.88;1779005;80;21192;-72
2020/12/23 09:46:04;;;;;;;24.47;13.75;;;;;;;-0.01;78.01;100885.19;1776381;80;21153;-73
2020/12/23 09:48:32;;;;;;;25.20;13.93;;;;;;;0.01;78.24;100883.21;1767127;80;21778;-72
2020/12/23 09:51:00;;;;;;;20.85;11.25;;;;;;;0.06;78.45;100878.72;1746954;80;21364;-73
2020/12/23 09:53:28;;;;;;;22.00;12.37;;;;;;;0.11;78.63;100875.88;1743913;80;21203;-73
2020/12/23 09:55:58;;;;;;;21.35;12.73;;;;;;;0.14;78.82;100875.52;1753509;80;21195;-73
2020/12/23 09:58:27;;;;;;;24.57;14.23;;;;;;;0.17;78.98;100873.05;1756610;80;21156;-73
2020/12/23 10:00:55;;;;;;;22.42;13.08;;;;;;;0.22;79.17;100866.23;1749157;81;21179;-73
2020/12/23 10:03:22;;;;;;;22.17;13.15;;;;;;;0.29;79.28;100861.56;1777648;80;22285;-74
2020/12/23 10:05:51;;;;;;;23.15;13.32;;;;;;;0.33;79.38;100860.20;1758539;80;21148;-73
2020/12/23 10:08:18;;;;;;;25.25;13.70;;;;;;;0.34;79.49;100857.91;1711991;83;21175;-73
2020/12/23 10:10:47;;;;;;;21.62;11.95;;;;;;;0.38;79.60;100857.35;1738730;80;21231;-74
2020/12/23 10:13:16;;;;;;;22.22;12.95;;;;;;;0.40;79.69;100852.73;1732635;81;21153;-73
2020/12/23 10:15:45;;;;;;;22.48;12.68;;;;;;;0.40;79.73;100844.86;1727429;81;21986;-75
2020/12/23 10:18:13;;;;;;;23.57;13.28;;;;;;;0.44;79.88;100835.60;1751247;81;22442;-75
2020/12/23 10:20:40;;;;;;;24.55;13.70;;;;;;;0.48;79.90;100837.36;1719741;82;21212;-74
2020/12/23 10:23:08;;;;;;;23.27;13.80;;;;;;;0.50;79.96;100836.69;1740719;81;21130;-74
2020/12/23 10:25:39;;;;;;;25.95;14.78;;;;;;;0.54;80.03;100830.06;1732372;81;21166;-75
2020/12/23 10:28:06;;;;;;;23.52;14.93;;;;;;;0.58;80.03;100821.30;1743773;80;21932;-74
2020/12/23 10:30:34;;;;;;;26.25;14.95;;;;;;;0.61;80.00;100819.63;1746768;80;21612;-74
2020/12/23 10:33:03;;;;;;;27.62;16.17;;;;;;;0.60;80.01;100818.00;1733185;80;21461;-74
2020/12/23 10:35:31;;;;;;;26.93;16.10;;;;;;;0.59;80.04;100815.03;1740596;80;21454;-74
2020/12/23 10:37:59;;;;;;;25.55;14.43;;;;;;;0.60;80.09;100803.04;1748725;82;21639;-74
2020/12/23 10:40:26;;;;;;;24.18;14.23;;;;;;;0.59;80.06;100804.05;1732713;81;21468;-76
2020/12/23 10:42:54;;;;;;;25.70;15.38;;;;;;;0.61;80.10;100808.60;1743377;81;21128;-74
2020/12/23 10:45:22;;;;;;;22.02;13.28;;;;;;;0.58;80.09;100805.02;1731656;81;21148;-73
2020/12/23 10:47:51;;;;;;;24.60;15.10;;;;;;;0.60;80.15;100803.04;1733655;82;21696;-73
2020/12/23 10:50:19;;;;;;;24.92;14.73;;;;;;;0.58;80.18;100797.14;1734061;81;21172;-75
2020/12/23 10:52:47;;;;;;;26.20;15.32;;;;;;;0.58;80.17;100792.39;1736752;81;21349;-74
2020/12/23 10:55:15;;;;;;;27.35;15.40;;;;;;;0.52;80.23;100782.11;1738295;81;21538;-74
2020/12/23 10:57:43;;;;;;;25.77;15.25;;;;;;;0.54;80.31;100790.63;1751567;81;21599;-75
2020/12/23 11:00:10;;;;;;;28.02;16.45;;;;;;;0.55;80.31;100781.73;1752613;81;21330;-73
2020/12/23 11:02:38;;;;;;;27.40;15.90;;;;;;;0.56;80.33;100782.55;1735870;81;21106;-75
2020/12/23 11:05:06;;;;;;;26.68;15.63;;;;;;;0.53;80.36;100778.50;1735474;81;21386;-74
2020/12/23 11:07:35;;;;;;;28.15;16.35;;;;;;;0.51;80.38;100772.61;1743596;80;21171;-75
2020/12/23 11:10:05;;;;;;;22.85;14.87;;;;;;;0.51;80.42;100771.80;1726374;80;21172;-75
2020/12/23 11:12:33;;;;;;;27.48;16.60;;;;;;;0.51;80.45;100774.42;1742187;81;21168;-75
2020/12/23 11:15:01;;;;;;;26.75;15.60;;;;;;;0.48;80.49;100777.42;1703833;83;21182;-75
2020/12/23 11:17:29;;;;;;;26.10;15.70;;;;;;;0.46;80.56;100772.33;1730600;81;21214;-75
2020/12/23 11:19:56;;;;;;;26.45;16.55;;;;;;;0.45;80.61;100774.66;1756398;81;21164;-75
2020/12/23 11:22:25;;;;;;;25.35;15.08;;;;;;;0.42;80.65;100772.39;1758090;81;21191;-76
2020/12/23 11:24:56;;;;;;;28.27;16.07;;;;;;;0.40;80.75;100767.34;1743787;81;21241;-76
2020/12/23 11:27:23;;;;;;;26.57;16.15;;;;;;;0.42;80.88;100767.14;1728886;82;21191;-78
2020/12/23 11:29:51;;;;;;;26.95;16.23;;;;;;;0.48;80.97;100761.65;1740220;81;22814;-79